KSFF/SFF METAR and TAF weather

Enter ICAO airport designator
Station Type Date Time Source
KSFF METAR 2021/03/06 00:53 UTC NOAA

KSFF 060053Z 17006KT 10SM CLR 16/M05 A2986 RMK AO2 SLP114 T01611050


Station Type Date Time Source
KSFF Decoded METAR 2021/03/06 00:53 UTC NOAA

FELTS FIELD, WA, United States (KSFF) 47-41N 117-19W 609M
Mar 05, 2021 - 07:53 PM EST / 2021.03.06 0053 UTC
Wind: from the S (170 degrees) at 7 MPH (6 KT):0
Visibility: 10 mile(s):0
Sky conditions: clear
Temperature: 61.0 F (16.1 C)
Dew Point: 23.0 F (-5.0 C)
Relative Humidity: 23%
Pressure (altimeter): 29.86 in. Hg (1011 hPa)
ob: KSFF 060053Z 17006KT 10SM CLR 16/M05 A2986 RMK AO2 SLP114 T01611050
cycle: 1

Station Type Date Time Source
KSFF TAF 2021/03/05 18:39 UTC NOAA

TAF KSFF 051736Z 0518/0618 05003KT P6SM BKN250
FM052100 19008G16KT P6SM BKN250
FM060000 23006KT P6SM BKN200
FM061000 22003KT P6SM BKN050 OVC200
FM061200 22003KT P6SM BKN018 OVC030

Example: see airport list